createdAt,value
2018-11-12T00:01:45.224Z,1.8
2018-11-12T00:04:44.975Z,1.9
2018-11-12T00:07:45.749Z,1.9
2018-11-12T00:10:44.750Z,1.8
2018-11-12T00:13:44.956Z,1.7
2018-11-12T00:16:44.818Z,1.6
2018-11-12T00:19:44.892Z,1.9
2018-11-12T00:22:45.037Z,1.8
2018-11-12T00:25:45.153Z,1.7
2018-11-12T00:28:44.831Z,1.7
2018-11-12T00:31:44.772Z,1.7
2018-11-12T00:34:44.855Z,1.7
2018-11-12T00:37:44.863Z,1.7
2018-11-12T00:40:44.760Z,1.9
2018-11-12T00:43:44.949Z,1.7
2018-11-12T00:46:44.981Z,1.7
2018-11-12T00:49:44.749Z,1.7
2018-11-12T00:52:44.885Z,1.7
2018-11-12T00:55:44.724Z,1.7
2018-11-12T00:58:44.885Z,2.2
2018-11-12T01:01:45.381Z,1.7
2018-11-12T01:04:44.964Z,2.2
2018-11-12T01:07:44.797Z,1.7
2018-11-12T01:10:45.175Z,1.9
2018-11-12T01:13:45.107Z,1.7
2018-11-12T01:16:44.765Z,1.6
2018-11-12T01:19:45.184Z,1.9
2018-11-12T01:22:44.994Z,1.7
2018-11-12T01:25:44.993Z,1.7
2018-11-12T01:28:44.892Z,1.7
2018-11-12T01:31:44.739Z,1.6
2018-11-12T01:34:45.155Z,1.8
2018-11-12T01:37:44.802Z,2.1
2018-11-12T01:40:44.664Z,1.6
2018-11-12T01:43:44.978Z,1.6
2018-11-12T01:46:44.933Z,1.9
2018-11-12T01:49:45.049Z,1.6
2018-11-12T01:52:44.891Z,1.6
2018-11-12T01:55:45.037Z,1.6
2018-11-12T01:58:44.807Z,1.6
2018-11-12T02:01:45.983Z,1.7
2018-11-12T02:04:45.750Z,1.7
2018-11-12T02:07:44.687Z,1.7
2018-11-12T02:10:44.713Z,1.5
2018-11-12T02:13:44.853Z,1.7
2018-11-12T02:16:44.608Z,1.6
2018-11-12T02:19:44.772Z,1.7
2018-11-12T02:22:44.941Z,1.6
2018-11-12T02:25:45.205Z,1.7
2018-11-12T02:28:45.230Z,1.6
2018-11-12T02:31:44.866Z,1.6
2018-11-12T02:34:44.852Z,1.6
2018-11-12T02:37:44.663Z,1.6
2018-11-12T02:40:44.792Z,1.5
2018-11-12T02:43:44.849Z,1.8
2018-11-12T02:46:45.059Z,1.6
2018-11-12T02:49:44.888Z,1.7
2018-11-12T02:52:45.160Z,1.7
2018-11-12T02:55:44.763Z,1.8
2018-11-12T02:58:44.768Z,1.7
2018-11-12T03:01:44.787Z,1.7
2018-11-12T03:04:44.935Z,1.7
2018-11-12T03:07:46.229Z,1.6
2018-11-12T03:10:44.948Z,1.7
2018-11-12T03:13:44.840Z,1.6
2018-11-12T03:16:44.816Z,1.6
2018-11-12T03:19:45.201Z,1.7
2018-11-12T03:22:45.118Z,1.6
2018-11-12T03:25:44.926Z,1.7
2018-11-12T03:28:44.760Z,1.6
2018-11-12T03:31:44.695Z,1.7
2018-11-12T03:34:44.536Z,1.5
2018-11-12T03:37:44.943Z,1.6
2018-11-12T03:40:44.603Z,1.5
2018-11-12T03:43:44.616Z,1.6
2018-11-12T03:46:44.705Z,1.6
2018-11-12T03:49:44.947Z,1.6
2018-11-12T03:52:44.701Z,1.6
2018-11-12T03:55:44.735Z,2
2018-11-12T03:58:45.036Z,1.7
2018-11-12T04:01:45.068Z,1.6
2018-11-12T04:04:44.708Z,1.6
2018-11-12T04:07:44.831Z,1.6
2018-11-12T04:10:44.567Z,1.5
2018-11-12T04:13:44.878Z,1.6
2018-11-12T04:16:45.399Z,1.6
2018-11-12T04:19:44.801Z,1.5
2018-11-12T04:22:45.060Z,1.6
2018-11-12T04:25:44.904Z,1.5
2018-11-12T04:28:44.943Z,1.5
2018-11-12T04:31:44.665Z,1.5
2018-11-12T04:34:44.859Z,1.6
2018-11-12T04:37:45.506Z,1.7
2018-11-12T04:40:44.780Z,1.5
2018-11-12T04:43:44.828Z,1.7
2018-11-12T04:46:44.568Z,1.6
2018-11-12T04:49:45.103Z,1.6
2018-11-12T04:52:44.735Z,1.6
2018-11-12T04:55:44.654Z,1.6
2018-11-12T04:58:44.709Z,1.5
2018-11-12T05:01:45.557Z,1.6
2018-11-12T05:04:44.814Z,1.3
2018-11-12T05:07:44.592Z,1.5
2018-11-12T05:10:44.711Z,1.5
2018-11-12T05:13:44.812Z,1.5
2018-11-12T05:16:46.682Z,1.5
2018-11-12T05:19:44.713Z,1.6
2018-11-12T05:22:44.989Z,1.5
2018-11-12T05:25:44.843Z,1.7
2018-11-12T05:28:45.061Z,1.6
2018-11-12T05:31:44.880Z,1.5
2018-11-12T05:34:45.012Z,1.5
2018-11-12T05:37:46.912Z,1.5
2018-11-12T05:40:44.766Z,1.4
2018-11-12T05:43:44.602Z,1.4
2018-11-12T05:46:44.879Z,1.6
2018-11-12T05:49:45.017Z,1.5
2018-11-12T05:52:44.738Z,1.6
2018-11-12T05:55:44.975Z,1.6
2018-11-12T05:58:45.388Z,1.5
2018-11-12T06:01:44.841Z,1.5
2018-11-12T06:04:45.720Z,1.5
2018-11-12T06:07:44.776Z,1.5
2018-11-12T06:10:44.981Z,1.5
2018-11-12T06:13:45.016Z,1.5
2018-11-12T06:16:44.614Z,1.5
2018-11-12T06:19:44.733Z,1.5
2018-11-12T06:22:46.673Z,1.5
2018-11-12T06:25:44.842Z,1.4
2018-11-12T06:28:44.752Z,1.5
2018-11-12T06:31:44.639Z,1.5
2018-11-12T06:34:44.620Z,1.5
2018-11-12T06:37:44.823Z,1.5
2018-11-12T06:40:44.637Z,1.4
2018-11-12T06:43:44.635Z,1.7
2018-11-12T06:46:44.772Z,1.5
2018-11-12T06:49:44.486Z,1.5
2018-11-12T06:52:45.961Z,1.4
2018-11-12T06:55:45.011Z,1.5
2018-11-12T06:58:44.749Z,1.5
2018-11-12T07:01:44.818Z,1.4
2018-11-12T07:04:44.744Z,1.4
2018-11-12T07:07:44.883Z,1.6
2018-11-12T07:10:44.757Z,1.4
2018-11-12T07:13:44.850Z,1.5
2018-11-12T07:16:44.907Z,1.5
2018-11-12T07:19:44.958Z,1.4
2018-11-12T07:22:44.872Z,1.5
2018-11-12T07:25:44.909Z,1.5
2018-11-12T07:28:44.901Z,1.5
2018-11-12T07:31:44.850Z,1.5
2018-11-12T07:34:44.623Z,1.4
2018-11-12T07:37:44.888Z,1.5
2018-11-12T07:40:44.582Z,1.4
2018-11-12T07:43:45.069Z,1.4
2018-11-12T07:46:44.940Z,1.4
2018-11-12T07:49:45.494Z,1.4
2018-11-12T07:52:44.898Z,1.4
2018-11-12T07:55:44.525Z,1.4
2018-11-12T07:58:44.711Z,1.4
2018-11-12T08:01:44.465Z,1.4
2018-11-12T08:04:44.605Z,1.4
2018-11-12T08:07:44.737Z,1.3
2018-11-12T08:10:44.687Z,1.4
2018-11-12T08:13:44.536Z,1.4
2018-11-12T08:16:44.597Z,1.5
2018-11-12T08:19:45.562Z,1.6
2018-11-12T08:22:44.944Z,1.7
2018-11-12T08:25:44.553Z,1.4
2018-11-12T08:28:44.717Z,1.5
2018-11-12T08:31:45.076Z,1.5
2018-11-12T08:34:44.780Z,1.4
2018-11-12T08:37:44.741Z,1.4
2018-11-12T08:40:47.405Z,1.3
2018-11-12T08:43:45.979Z,1.4
2018-11-12T08:46:44.851Z,1.3
2018-11-12T08:49:47.080Z,1.4
2018-11-12T08:52:44.595Z,1.4
2018-11-12T08:55:46.239Z,1.5
2018-11-12T08:58:44.555Z,1.4
2018-11-12T09:01:44.632Z,1.5
2018-11-12T09:04:44.802Z,1.5
2018-11-12T09:07:44.908Z,1.5
2018-11-12T09:10:45.265Z,1.3
2018-11-12T09:13:47.453Z,1.5
2018-11-12T09:16:44.670Z,1.3
2018-11-12T09:19:44.569Z,1.4
2018-11-12T09:22:44.606Z,1.4
2018-11-12T09:25:44.501Z,1.4
2018-11-12T09:28:44.640Z,1.4
2018-11-12T09:31:44.550Z,1.4
2018-11-12T09:34:44.945Z,1.4
2018-11-12T09:37:44.910Z,1.5
2018-11-12T09:40:44.427Z,1.4
2018-11-12T09:43:44.552Z,1.2
2018-11-12T09:46:45.025Z,1.4
2018-11-12T09:49:44.812Z,1.4
2018-11-12T09:52:45.262Z,1.4
2018-11-12T09:55:45.051Z,1.4
2018-11-12T09:58:45.520Z,1.4
2018-11-12T10:01:53.440Z,1.5
2018-11-12T10:05:02.563Z,1.4
2018-11-12T10:08:13.029Z,1.4
2018-11-12T10:11:04.436Z,1.4
2018-11-12T10:14:16.935Z,1.4
2018-11-12T10:17:01.117Z,1.4
2018-11-12T10:19:46.181Z,1.4
2018-11-12T10:22:44.535Z,1.4
2018-11-12T10:25:44.590Z,1.4
2018-11-12T10:28:44.775Z,1.5
2018-11-12T10:31:44.619Z,1.3
2018-11-12T10:34:44.527Z,1.4
2018-11-12T10:37:44.569Z,1.5
2018-11-12T10:40:45.640Z,1.4
2018-11-12T10:43:44.802Z,1.8
2018-11-12T10:46:44.450Z,1.4
2018-11-12T10:49:44.801Z,1.4
2018-11-12T10:52:45.108Z,1.4
2018-11-12T10:55:47.525Z,1.4
2018-11-12T10:58:44.787Z,1.4
2018-11-12T11:01:44.751Z,1.4
2018-11-12T11:04:44.448Z,1.5
2018-11-12T11:07:44.855Z,1.4
2018-11-12T11:10:44.491Z,1.4
2018-11-12T11:13:45.572Z,1.4
2018-11-12T11:16:44.567Z,1.4
2018-11-12T11:19:44.897Z,1.4
2018-11-12T11:22:44.445Z,1.4
2018-11-12T11:25:45.908Z,1.2
2018-11-12T11:28:44.300Z,1.4
2018-11-12T11:31:45.322Z,1.3
2018-11-12T11:34:44.440Z,2.5
2018-11-12T11:37:45.437Z,1.4
2018-11-12T11:40:46.167Z,1.5
2018-11-12T11:43:44.346Z,1.5
2018-11-12T11:46:44.383Z,1.3
2018-11-12T11:49:44.964Z,3.1
2018-11-12T11:52:44.509Z,1.5
2018-11-12T11:55:44.485Z,2.1
2018-11-12T11:58:44.521Z,1.6
2018-11-12T12:01:45.575Z,2.5
2018-11-12T12:04:44.857Z,1.5
2018-11-12T12:07:45.305Z,1.5
2018-11-12T12:10:44.566Z,1.6
2018-11-12T12:13:45.202Z,1.4
2018-11-12T12:16:45.093Z,1.5
2018-11-12T12:19:45.353Z,1.4
2018-11-12T12:22:44.903Z,1.3
2018-11-12T12:25:47.095Z,1.6
2018-11-12T12:28:44.516Z,1.5
2018-11-12T12:31:44.461Z,1.4
2018-11-12T12:34:45.465Z,1.4
2018-11-12T12:37:45.334Z,1.4
2018-11-12T12:40:44.970Z,1.3
2018-11-12T12:43:44.821Z,1.4
2018-11-12T12:46:44.331Z,1.5
2018-11-12T12:49:46.095Z,1.4
2018-11-12T12:52:44.532Z,1.4
2018-11-12T12:55:47.811Z,1.4
2018-11-12T12:58:44.865Z,1.4
2018-11-12T13:01:46.839Z,1.5
2018-11-12T13:04:45.888Z,1.4
2018-11-12T13:07:44.650Z,1.4
2018-11-12T13:10:44.838Z,1.7
2018-11-12T13:13:45.250Z,1.5
2018-11-12T13:16:44.835Z,1.6
2018-11-12T13:19:45.820Z,1.5
2018-11-12T13:22:44.410Z,1.6
2018-11-12T13:25:44.527Z,1.8
2018-11-12T13:28:44.879Z,2.1
2018-11-12T13:31:44.555Z,1.5
2018-11-12T13:34:44.660Z,1.6
2018-11-12T13:37:44.726Z,1.5
2018-11-12T13:40:44.644Z,1.5
2018-11-12T13:43:44.942Z,1.4
2018-11-12T13:46:44.439Z,1.4
2018-11-12T13:49:44.279Z,1.4
2018-11-12T13:52:45.053Z,1.5
2018-11-12T13:55:44.996Z,1.5
2018-11-12T13:58:44.441Z,1.5
2018-11-12T14:01:44.691Z,1.5
2018-11-12T14:04:44.850Z,1.8
2018-11-12T14:07:44.349Z,1.5
2018-11-12T14:10:44.320Z,1.5
2018-11-12T14:13:44.715Z,1.5
2018-11-12T14:16:44.296Z,1.5
2018-11-12T14:19:44.627Z,1.5
2018-11-12T14:22:44.861Z,1.5
2018-11-12T14:25:44.271Z,1.4
2018-11-12T14:28:47.805Z,1.4
2018-11-12T14:31:45.131Z,1.3
2018-11-12T14:34:44.453Z,1.5
2018-11-12T14:37:44.962Z,1.4
2018-11-12T14:40:44.871Z,1.5
2018-11-12T14:43:45.241Z,2
2018-11-12T14:46:44.706Z,1.5
2018-11-12T14:49:44.552Z,1.4
2018-11-12T14:52:44.604Z,1.5
2018-11-12T14:55:44.821Z,1.4
2018-11-12T14:58:44.473Z,1.5
2018-11-12T15:01:46.026Z,1.5
2018-11-12T15:04:45.066Z,1.3
2018-11-12T15:07:44.436Z,1.5
2018-11-12T15:10:44.579Z,1.4
2018-11-12T15:13:44.258Z,1.5
2018-11-12T15:16:44.362Z,1.5
2018-11-12T15:19:44.558Z,1.4
2018-11-12T15:22:46.381Z,1.4
2018-11-12T15:25:44.269Z,1.4
2018-11-12T15:28:45.062Z,1.5
2018-11-12T15:31:44.887Z,1.4
2018-11-12T15:34:44.581Z,1.4
2018-11-12T15:37:46.201Z,1.8
2018-11-12T15:40:44.574Z,1.4
2018-11-12T15:43:44.489Z,1.4
2018-11-12T15:46:44.323Z,1.4
2018-11-12T15:49:44.891Z,1.4
2018-11-12T15:52:44.547Z,1.4
2018-11-12T15:55:44.316Z,1.4
2018-11-12T15:58:44.320Z,1.5
2018-11-12T16:01:44.406Z,1.6
2018-11-12T16:04:44.346Z,1.6
2018-11-12T16:07:44.644Z,1.4
2018-11-12T16:10:44.477Z,1.5
2018-11-12T16:13:44.555Z,1.5
2018-11-12T16:16:44.283Z,1.4
2018-11-12T16:19:44.740Z,1.5
2018-11-12T16:22:44.639Z,1.5
2018-11-12T16:25:44.868Z,1.4
2018-11-12T16:28:44.363Z,1.5
2018-11-12T16:31:44.486Z,1.4
2018-11-12T16:34:44.426Z,1.5
2018-11-12T16:37:44.637Z,1.6
2018-11-12T16:40:44.466Z,1.4
2018-11-12T16:43:44.924Z,1.5
2018-11-12T16:46:44.411Z,1.4
2018-11-12T16:49:44.605Z,1.4
2018-11-12T16:52:44.873Z,1.5
2018-11-12T16:55:44.760Z,1.4
2018-11-12T16:58:44.449Z,1.6
2018-11-12T17:01:44.347Z,1.4
2018-11-12T17:04:44.365Z,1.4
2018-11-12T17:07:44.337Z,1.4
2018-11-12T17:10:44.388Z,1.5
2018-11-12T17:13:45.062Z,1.5
2018-11-12T17:16:44.295Z,1.4
2018-11-12T17:19:44.332Z,1.5
2018-11-12T17:22:44.416Z,1.3
2018-11-12T17:25:44.236Z,1.4
2018-11-12T17:28:44.459Z,1.5
2018-11-12T17:31:44.407Z,1.4
2018-11-12T17:34:44.369Z,1.5
2018-11-12T17:37:44.569Z,1.6
2018-11-12T17:40:44.778Z,1.4
2018-11-12T17:43:44.904Z,1.6
2018-11-12T17:46:44.412Z,1.6
2018-11-12T17:49:44.851Z,1.4
2018-11-12T17:52:44.519Z,1.6
2018-11-12T17:55:44.616Z,1.5
2018-11-12T17:58:44.623Z,1.5
2018-11-12T18:01:44.653Z,1.5
2018-11-12T18:04:44.770Z,1.6
2018-11-12T18:07:48.046Z,1.5
2018-11-12T18:10:44.489Z,1.6
2018-11-12T18:13:46.116Z,1.7
2018-11-12T18:16:44.431Z,1.6
2018-11-12T18:19:45.559Z,1.6
2018-11-12T18:22:44.427Z,1.5
2018-11-12T18:25:44.528Z,1.5
2018-11-12T18:28:44.549Z,1.6
2018-11-12T18:31:47.972Z,1.7
2018-11-12T18:34:45.362Z,1.7
2018-11-12T18:37:45.675Z,2.2
2018-11-12T18:40:44.394Z,1.6
2018-11-12T18:43:46.823Z,3.1
2018-11-12T18:46:44.702Z,8.4
2018-11-12T18:49:44.374Z,5.8
2018-11-12T18:52:46.566Z,5.1
2018-11-12T18:55:44.536Z,5.5
2018-11-12T18:58:44.177Z,6.3
2018-11-12T19:01:44.256Z,5.4
2018-11-12T19:04:44.410Z,8.4
2018-11-12T19:07:44.484Z,10.1
2018-11-12T19:10:45.634Z,5.8
2018-11-12T19:13:44.888Z,8
2018-11-12T19:16:44.300Z,7.1
2018-11-12T19:19:44.294Z,5.9
2018-11-12T19:22:44.900Z,7.2
2018-11-12T19:25:44.303Z,6
2018-11-12T19:28:44.433Z,6
2018-11-12T19:31:44.516Z,4.9
2018-11-12T19:34:44.609Z,4.9
2018-11-12T19:37:44.467Z,3.6
2018-11-12T19:40:46.053Z,3.6
2018-11-12T19:43:44.225Z,4.1
2018-11-12T19:46:44.378Z,7.4
2018-11-12T19:49:44.738Z,8.6
2018-11-12T19:52:44.152Z,7.2
2018-11-12T19:55:44.296Z,10.2
2018-11-12T19:58:44.276Z,9.3
2018-11-12T20:01:44.208Z,5.1
2018-11-12T20:04:44.314Z,7.6
2018-11-12T20:07:44.653Z,5.8
2018-11-12T20:10:44.420Z,6.9
2018-11-12T20:13:44.360Z,6.4
2018-11-12T20:16:44.306Z,5.6
2018-11-12T20:19:44.512Z,17.3
2018-11-12T20:22:44.734Z,9.8
2018-11-12T20:25:44.595Z,7.8
2018-11-12T20:28:44.440Z,7.3
2018-11-12T20:31:44.280Z,5.4
2018-11-12T20:34:44.386Z,6.6
2018-11-12T20:37:44.831Z,4.8
2018-11-12T20:40:44.471Z,7.1
2018-11-12T20:43:44.755Z,6
2018-11-12T20:46:44.536Z,5.4
2018-11-12T20:49:44.215Z,5.7
2018-11-12T20:52:45.994Z,5.6
2018-11-12T20:55:46.626Z,4.1
2018-11-12T20:58:44.351Z,4.5
2018-11-12T21:01:45.208Z,5.4
2018-11-12T21:04:44.563Z,6
2018-11-12T21:07:44.569Z,5
2018-11-12T21:10:44.284Z,7.4
2018-11-12T21:13:44.584Z,4.7
2018-11-12T21:16:44.298Z,6
2018-11-12T21:19:44.266Z,4.3
2018-11-12T21:22:44.459Z,4.9
2018-11-12T21:25:44.130Z,3.6
2018-11-12T21:28:45.032Z,3.4
2018-11-12T21:31:44.396Z,4.8
2018-11-12T21:34:44.210Z,5.1
2018-11-12T21:37:44.400Z,4.4
2018-11-12T21:40:44.155Z,3.8
2018-11-12T21:43:46.728Z,3.8
2018-11-12T21:46:44.276Z,3.6
2018-11-12T21:49:44.871Z,3.5
2018-11-12T21:52:44.264Z,4.5
2018-11-12T21:55:44.423Z,3.5
2018-11-12T21:58:45.856Z,4.4
2018-11-12T22:01:44.382Z,4.3
2018-11-12T22:04:44.625Z,3.9
2018-11-12T22:07:44.259Z,3.6
2018-11-12T22:10:44.578Z,3.7
2018-11-12T22:13:44.819Z,3.6
2018-11-12T22:16:44.622Z,3.7
2018-11-12T22:19:46.540Z,5.1
2018-11-12T22:22:44.262Z,3.8
2018-11-12T22:25:44.404Z,3.7
2018-11-12T22:28:44.252Z,4.3
2018-11-12T22:31:44.452Z,4.1
2018-11-12T22:34:44.141Z,3.4
2018-11-12T22:37:45.263Z,4.2
2018-11-12T22:40:44.270Z,4.1
2018-11-12T22:43:45.110Z,4.8
2018-11-12T22:46:44.329Z,4.1
2018-11-12T22:49:44.317Z,3.4
2018-11-12T22:52:44.202Z,4.1
2018-11-12T22:55:44.297Z,4
2018-11-12T22:58:44.827Z,3.4
2018-11-12T23:01:44.153Z,4
2018-11-12T23:04:44.228Z,3.3
2018-11-12T23:07:44.330Z,3.7
2018-11-12T23:10:44.090Z,4.1
2018-11-12T23:13:44.514Z,3.5
2018-11-12T23:16:44.435Z,3.9
2018-11-12T23:19:45.919Z,3.3
2018-11-12T23:22:44.442Z,3.5
2018-11-12T23:25:44.740Z,4
2018-11-12T23:28:44.368Z,4.1
2018-11-12T23:31:44.215Z,3.7
2018-11-12T23:34:44.142Z,3.9
2018-11-12T23:37:44.416Z,3.3
2018-11-12T23:40:44.319Z,3.6
2018-11-12T23:43:44.286Z,3.3
2018-11-12T23:46:45.106Z,3.8
2018-11-12T23:49:44.464Z,3.3
2018-11-12T23:52:44.441Z,3.6
2018-11-12T23:55:44.323Z,3.4
2018-11-12T23:58:44.815Z,3.3
